createdAt,value
2017-06-10T00:00:24.874Z,0
2017-06-10T00:01:24.852Z,0
2017-06-10T00:02:24.881Z,0
2017-06-10T00:03:24.804Z,0
2017-06-10T00:04:24.782Z,0
2017-06-10T00:05:24.771Z,0
2017-06-10T00:06:24.735Z,0
2017-06-10T00:07:24.743Z,0
2017-06-10T00:08:24.692Z,0
2017-06-10T00:09:24.378Z,0
2017-06-10T00:10:24.652Z,0
2017-06-10T00:11:24.632Z,0
2017-06-10T00:12:24.611Z,0
2017-06-10T00:13:24.597Z,0
2017-06-10T00:14:24.563Z,0
2017-06-10T00:15:24.547Z,0
2017-06-10T00:16:24.528Z,0
2017-06-10T00:17:24.226Z,0
2017-06-10T00:18:24.485Z,0
2017-06-10T00:19:24.473Z,0
2017-06-10T00:20:24.447Z,0
2017-06-10T00:21:24.412Z,0
2017-06-10T00:22:24.399Z,0
2017-06-10T00:23:24.080Z,0
2017-06-10T00:24:24.358Z,0
2017-06-10T00:25:24.335Z,0
2017-06-10T00:26:24.010Z,0
2017-06-10T00:27:24.286Z,0
2017-06-10T00:28:24.270Z,0
2017-06-10T00:29:24.246Z,0
2017-06-10T00:30:24.235Z,0
2017-06-10T00:31:24.205Z,0
2017-06-10T00:32:24.189Z,0
2017-06-10T00:33:24.167Z,0
2017-06-10T00:34:24.144Z,0
2017-06-10T00:35:24.121Z,0
2017-06-10T00:36:24.098Z,0
2017-06-10T00:37:24.115Z,0
2017-06-10T00:38:24.061Z,0
2017-06-10T00:39:23.732Z,0
2017-06-10T00:40:24.014Z,0
2017-06-10T00:41:23.990Z,0
2017-06-10T00:42:23.974Z,0
2017-06-10T00:43:23.944Z,0
2017-06-10T00:44:23.932Z,0
2017-06-10T00:45:23.905Z,0
2017-06-10T00:46:23.933Z,0
2017-06-10T00:47:23.866Z,0
2017-06-10T00:48:23.847Z,0
2017-06-10T00:49:23.870Z,0
2017-06-10T00:50:23.796Z,0
2017-06-10T00:51:23.480Z,0
2017-06-10T00:52:23.810Z,0
2017-06-10T00:53:23.794Z,0
2017-06-10T00:54:23.712Z,0
2017-06-10T00:55:23.694Z,0
2017-06-10T00:56:23.670Z,0
2017-06-10T00:57:23.646Z,0
2017-06-10T00:58:23.627Z,0
2017-06-10T00:59:23.603Z,0
2017-06-10T01:00:23.591Z,0
2017-06-10T01:01:23.257Z,0
2017-06-10T01:02:23.786Z,0
2017-06-10T01:03:23.519Z,0
2017-06-10T01:04:23.499Z,0
2017-06-10T01:05:23.501Z,0
2017-06-10T01:06:23.453Z,0
2017-06-10T01:07:23.490Z,0
2017-06-10T01:08:23.405Z,0
2017-06-10T01:09:23.385Z,0
2017-06-10T01:10:23.371Z,0
2017-06-10T01:11:23.349Z,0
2017-06-10T01:12:23.326Z,0
2017-06-10T01:13:23.305Z,0
2017-06-10T01:14:23.277Z,0
2017-06-10T01:15:23.257Z,0
2017-06-10T01:16:23.235Z,0
2017-06-10T01:17:23.222Z,0
2017-06-10T01:18:23.207Z,0
2017-06-10T01:19:23.174Z,0
2017-06-10T01:20:23.156Z,0
2017-06-10T01:21:23.138Z,0
2017-06-10T01:22:22.815Z,0
2017-06-10T01:23:23.087Z,0
2017-06-10T01:24:23.067Z,0
2017-06-10T01:25:23.046Z,0
2017-06-10T01:26:23.019Z,0
2017-06-10T01:27:22.706Z,0
2017-06-10T01:28:22.986Z,0
2017-06-10T01:29:22.953Z,0
2017-06-10T01:30:22.935Z,0
2017-06-10T01:31:22.920Z,0
2017-06-10T01:32:22.902Z,0
2017-06-10T01:33:22.866Z,0
2017-06-10T01:34:22.844Z,0
2017-06-10T01:35:22.836Z,0
2017-06-10T01:36:22.860Z,0
2017-06-10T01:37:22.798Z,0
2017-06-10T01:38:22.758Z,0
2017-06-10T01:39:22.731Z,0
2017-06-10T01:40:22.736Z,0
2017-06-10T01:41:22.701Z,0
2017-06-10T01:42:22.369Z,0
2017-06-10T01:43:22.658Z,0
2017-06-10T01:44:22.637Z,0
2017-06-10T01:45:22.614Z,0
2017-06-10T01:46:22.593Z,0
2017-06-10T01:47:22.576Z,0
2017-06-10T01:48:22.252Z,0
2017-06-10T01:49:22.581Z,0
2017-06-10T01:50:22.513Z,0
2017-06-10T01:51:22.481Z,0
2017-06-10T01:52:22.514Z,0
2017-06-10T01:53:22.468Z,0
2017-06-10T01:54:22.418Z,0
2017-06-10T01:55:22.452Z,0
2017-06-10T01:56:22.376Z,0
2017-06-10T01:57:22.395Z,0
2017-06-10T01:58:22.336Z,0
2017-06-10T01:59:22.314Z,0
2017-06-10T02:00:22.288Z,0
2017-06-10T02:01:22.267Z,0
2017-06-10T02:02:22.239Z,0
2017-06-10T02:03:22.222Z,0
2017-06-10T02:04:21.899Z,0
2017-06-10T02:05:22.181Z,0
2017-06-10T02:06:22.157Z,0
2017-06-10T02:07:21.835Z,0
2017-06-10T02:08:22.110Z,0
2017-06-10T02:09:22.095Z,0
2017-06-10T02:10:22.074Z,0
2017-06-10T02:11:22.060Z,0
2017-06-10T02:12:22.085Z,0
2017-06-10T02:13:22.013Z,0
2017-06-10T02:14:22.032Z,0
2017-06-10T02:15:21.669Z,0
2017-06-10T02:16:21.944Z,0
2017-06-10T02:17:21.923Z,0
2017-06-10T02:18:21.893Z,0
2017-06-10T02:19:21.878Z,0
2017-06-10T02:20:21.863Z,0
2017-06-10T02:21:21.840Z,0
2017-06-10T02:22:21.809Z,0
2017-06-10T02:23:21.794Z,0
2017-06-10T02:24:21.766Z,4
2017-06-10T02:25:21.752Z,4
2017-06-10T02:26:21.727Z,4
2017-06-10T02:27:21.700Z,4
2017-06-10T02:28:21.685Z,0
2017-06-10T02:29:21.668Z,4
2017-06-10T02:30:21.698Z,4
2017-06-10T02:31:21.365Z,4
2017-06-10T02:32:21.594Z,4
2017-06-10T02:33:21.279Z,4
2017-06-10T02:34:21.254Z,8
2017-06-10T02:35:21.528Z,8
2017-06-10T02:36:21.204Z,8
2017-06-10T02:37:21.178Z,8
2017-06-10T02:38:21.161Z,8
2017-06-10T02:39:21.146Z,12
2017-06-10T02:40:21.427Z,16
2017-06-10T02:41:21.400Z,16
2017-06-10T02:42:21.082Z,16
2017-06-10T02:43:21.355Z,16
2017-06-10T02:44:21.339Z,20
2017-06-10T02:45:21.317Z,24
2017-06-10T02:46:21.289Z,24
2017-06-10T02:47:21.268Z,28
2017-06-10T02:48:21.296Z,32
2017-06-10T02:49:20.920Z,40
2017-06-10T02:50:21.200Z,40
2017-06-10T02:51:21.181Z,44
2017-06-10T02:52:21.154Z,52
2017-06-10T02:53:21.132Z,56
2017-06-10T02:54:21.112Z,60
2017-06-10T02:55:21.090Z,68
2017-06-10T02:56:21.078Z,76
2017-06-10T02:57:21.048Z,84
2017-06-10T02:58:21.071Z,92
2017-06-10T02:59:21.035Z,104
2017-06-10T03:00:21.028Z,112
2017-06-10T03:01:20.957Z,120
2017-06-10T03:02:20.950Z,132
2017-06-10T03:03:20.620Z,144
2017-06-10T03:04:20.893Z,156
2017-06-10T03:05:20.921Z,168
2017-06-10T03:06:20.851Z,184
2017-06-10T03:07:20.842Z,200
2017-06-10T03:08:20.817Z,212
2017-06-10T03:09:20.787Z,228
2017-06-10T03:10:20.762Z,244
2017-06-10T03:11:20.443Z,264
2017-06-10T03:12:20.720Z,280
2017-06-10T03:13:20.698Z,300
2017-06-10T03:14:20.931Z,320
2017-06-10T03:15:20.410Z,344
2017-06-10T03:16:20.631Z,364
2017-06-10T03:17:20.618Z,388
2017-06-10T03:18:20.295Z,412
2017-06-10T03:19:20.571Z,436
2017-06-10T03:20:20.548Z,460
2017-06-10T03:21:20.535Z,488
2017-06-10T03:22:20.514Z,512
2017-06-10T03:23:20.532Z,544
2017-06-10T03:24:20.461Z,572
2017-06-10T03:25:20.433Z,604
2017-06-10T03:26:20.421Z,636
2017-06-10T03:27:20.399Z,672
2017-06-10T03:28:20.070Z,704
2017-06-10T03:29:20.357Z,740
2017-06-10T03:30:20.024Z,776
2017-06-10T03:31:20.308Z,816
2017-06-10T03:32:20.286Z,856
2017-06-10T03:33:20.264Z,904
2017-06-10T03:34:20.240Z,948
2017-06-10T03:35:20.219Z,1000
2017-06-10T03:36:20.249Z,1052
2017-06-10T03:37:20.175Z,1112
2017-06-10T03:38:20.164Z,1180
2017-06-10T03:39:20.130Z,1264
2017-06-10T03:40:20.116Z,1336
2017-06-10T03:41:20.089Z,1372
2017-06-10T03:42:20.074Z,1432
2017-06-10T03:43:20.046Z,1508
2017-06-10T03:44:20.025Z,1656
2017-06-10T03:45:20.010Z,1920
2017-06-10T03:46:19.985Z,2184
2017-06-10T03:47:19.961Z,2364
2017-06-10T03:48:19.934Z,2516
2017-06-10T03:49:19.914Z,2684
2017-06-10T03:50:19.898Z,2832
2017-06-10T03:51:19.881Z,3004
2017-06-10T03:52:19.853Z,3176
2017-06-10T03:53:19.835Z,3308
2017-06-10T03:54:19.806Z,3460
2017-06-10T03:55:19.790Z,3616
2017-06-10T03:56:19.763Z,3784
2017-06-10T03:57:19.741Z,3992
2017-06-10T03:58:19.724Z,4200
2017-06-10T03:59:19.700Z,4324
2017-06-10T04:00:19.682Z,4476
2017-06-10T04:01:19.659Z,4680
2017-06-10T04:02:19.639Z,4932
2017-06-10T04:03:19.614Z,5160
2017-06-10T04:04:19.603Z,5320
2017-06-10T04:05:19.573Z,5512
2017-06-10T04:06:19.561Z,5676
2017-06-10T04:07:19.537Z,5820
2017-06-10T04:08:19.512Z,6044
2017-06-10T04:09:19.492Z,6224
2017-06-10T04:10:19.464Z,6412
2017-06-10T04:11:19.446Z,6572
2017-06-10T04:12:19.477Z,6716
2017-06-10T04:13:19.396Z,6892
2017-06-10T04:14:19.387Z,7056
2017-06-10T04:15:19.363Z,7200
2017-06-10T04:16:19.338Z,7352
2017-06-10T04:17:19.327Z,7484
2017-06-10T04:18:19.302Z,7456
2017-06-10T04:19:19.279Z,7440
2017-06-10T04:20:19.261Z,7712
2017-06-10T04:21:19.236Z,7960
2017-06-10T04:22:19.219Z,8176
2017-06-10T04:23:19.202Z,8280
2017-06-10T04:24:18.884Z,8376
2017-06-10T04:25:19.163Z,8408
2017-06-10T04:26:19.202Z,8664
2017-06-10T04:27:19.129Z,8888
2017-06-10T04:28:18.799Z,8996
2017-06-10T04:29:19.080Z,9324
2017-06-10T04:30:19.065Z,9468
2017-06-10T04:31:19.038Z,9584
2017-06-10T04:32:19.027Z,9728
2017-06-10T04:33:19.052Z,9912
2017-06-10T04:34:18.989Z,10020
2017-06-10T04:35:19.009Z,10240
2017-06-10T04:36:18.946Z,10340
2017-06-10T04:37:18.925Z,10460
2017-06-10T04:38:18.909Z,10648
2017-06-10T04:39:18.879Z,10832
2017-06-10T04:40:18.865Z,10980
2017-06-10T04:41:18.564Z,11128
2017-06-10T04:42:18.827Z,11332
2017-06-10T04:43:18.818Z,11508
2017-06-10T04:44:18.495Z,11656
2017-06-10T04:45:18.778Z,11800
2017-06-10T04:46:18.756Z,11944
2017-06-10T04:47:18.738Z,12120
2017-06-10T04:48:18.717Z,12296
2017-06-10T04:49:18.700Z,12484
2017-06-10T04:50:18.687Z,12672
2017-06-10T04:51:18.668Z,12856
2017-06-10T04:52:18.647Z,12984
2017-06-10T04:53:18.625Z,13028
2017-06-10T04:54:18.606Z,13168
2017-06-10T04:55:18.583Z,13464
2017-06-10T04:56:18.574Z,13748
2017-06-10T04:57:18.578Z,13904
2017-06-10T04:58:18.535Z,13852
2017-06-10T04:59:18.527Z,13776
2017-06-10T05:00:18.510Z,14016
2017-06-10T05:01:18.475Z,14112
2017-06-10T05:02:18.465Z,14336
2017-06-10T05:03:18.445Z,14592
2017-06-10T05:04:18.436Z,14816
2017-06-10T05:05:18.429Z,14848
2017-06-10T05:06:18.100Z,14976
2017-06-10T05:07:18.375Z,15072
2017-06-10T05:08:18.363Z,15232
2017-06-10T05:09:18.344Z,15520
2017-06-10T05:10:18.318Z,15712
2017-06-10T05:11:18.307Z,15840
2017-06-10T05:12:17.990Z,15872
2017-06-10T05:13:18.277Z,15968
2017-06-10T05:14:18.010Z,15872
2017-06-10T05:15:18.248Z,16064
2017-06-10T05:16:18.221Z,16448
2017-06-10T05:17:18.222Z,16736
2017-06-10T05:18:18.197Z,16672
2017-06-10T05:19:18.170Z,16640
2017-06-10T05:20:17.857Z,16928
2017-06-10T05:21:18.137Z,17280
2017-06-10T05:22:18.176Z,17600
2017-06-10T05:23:18.115Z,17856
2017-06-10T05:24:18.090Z,18272
2017-06-10T05:25:17.768Z,18560
2017-06-10T05:26:18.111Z,18400
2017-06-10T05:27:18.046Z,18720
2017-06-10T05:28:18.029Z,18976
2017-06-10T05:29:18.021Z,18816
2017-06-10T05:30:17.997Z,18912
2017-06-10T05:31:17.983Z,19712
2017-06-10T05:32:17.969Z,20032
2017-06-10T05:33:17.951Z,19712
2017-06-10T05:34:17.931Z,19904
2017-06-10T05:35:17.921Z,20544
2017-06-10T05:36:17.605Z,20768
2017-06-10T05:37:17.890Z,20672
2017-06-10T05:38:17.871Z,20768
2017-06-10T05:39:17.848Z,20672
2017-06-10T05:40:17.836Z,20640
2017-06-10T05:41:17.833Z,21152
2017-06-10T05:42:17.506Z,21792
2017-06-10T05:43:17.790Z,21696
2017-06-10T05:44:17.772Z,21088
2017-06-10T05:45:17.762Z,21472
2017-06-10T05:46:17.743Z,22656
2017-06-10T05:47:17.730Z,22624
2017-06-10T05:48:17.716Z,22144
2017-06-10T05:49:17.707Z,22496
2017-06-10T05:50:17.713Z,23168
2017-06-10T05:51:17.675Z,23904
2017-06-10T05:52:17.711Z,24352
2017-06-10T05:53:17.654Z,24672
2017-06-10T05:54:17.634Z,25024
2017-06-10T05:55:17.620Z,25120
2017-06-10T05:56:17.609Z,24032
2017-06-10T05:57:17.588Z,23136
2017-06-10T05:58:17.828Z,23264
2017-06-10T05:59:17.565Z,24352
2017-06-10T06:00:17.561Z,25184
2017-06-10T06:01:17.534Z,24608
2017-06-10T06:02:17.547Z,24608
2017-06-10T06:03:17.502Z,25760
2017-06-10T06:04:17.491Z,26816
2017-06-10T06:05:17.492Z,26752
2017-06-10T06:06:17.521Z,25248
2017-06-10T06:07:17.462Z,24160
2017-06-10T06:08:17.460Z,24192
2017-06-10T06:09:17.425Z,25760
2017-06-10T06:10:17.407Z,27552
2017-06-10T06:11:17.097Z,28128
2017-06-10T06:12:17.393Z,27456
2017-06-10T06:13:17.430Z,27008
2017-06-10T06:14:17.359Z,27648
2017-06-10T06:15:17.352Z,28544
2017-06-10T06:16:17.028Z,28448
2017-06-10T06:17:17.325Z,27488
2017-06-10T06:18:17.324Z,27136
2017-06-10T06:19:17.289Z,27424
2017-06-10T06:20:17.280Z,28064
2017-06-10T06:21:17.266Z,28160
2017-06-10T06:22:17.259Z,28416
2017-06-10T06:23:17.298Z,28512
2017-06-10T06:24:17.230Z,29216
2017-06-10T06:25:17.219Z,30144
2017-06-10T06:26:17.243Z,30400
2017-06-10T06:27:17.252Z,30368
2017-06-10T06:28:17.179Z,30912
2017-06-10T06:29:17.172Z,31072
2017-06-10T06:30:17.169Z,30752
2017-06-10T06:31:16.852Z,30208
2017-06-10T06:32:17.133Z,29376
2017-06-10T06:33:17.136Z,28960
2017-06-10T06:34:16.809Z,29248
2017-06-10T06:35:16.844Z,30080
2017-06-10T06:36:17.168Z,30528
2017-06-10T06:37:17.069Z,29408
2017-06-10T06:38:17.089Z,28384
2017-06-10T06:39:17.056Z,28256
2017-06-10T06:40:16.743Z,30208
2017-06-10T06:41:17.031Z,33472
2017-06-10T06:42:17.122Z,35936
2017-06-10T06:43:17.013Z,37312
2017-06-10T06:44:16.996Z,36512
2017-06-10T06:45:17.040Z,34752
2017-06-10T06:46:16.985Z,32608
2017-06-10T06:47:16.961Z,31328
2017-06-10T06:48:16.955Z,31200
2017-06-10T06:49:16.965Z,31616
2017-06-10T06:50:16.931Z,32832
2017-06-10T06:51:16.920Z,34656
2017-06-10T06:52:16.613Z,35648
2017-06-10T06:53:16.903Z,36480
2017-06-10T06:54:16.586Z,36608
2017-06-10T06:55:16.885Z,36288
2017-06-10T06:56:16.872Z,36512
2017-06-10T06:57:16.607Z,37344
2017-06-10T06:58:16.845Z,38272
2017-06-10T06:59:16.830Z,39360
2017-06-10T07:00:17.075Z,39488
2017-06-10T07:01:16.815Z,39200
2017-06-10T07:02:16.812Z,39136
2017-06-10T07:03:16.813Z,38048
2017-06-10T07:04:16.804Z,37632
2017-06-10T07:05:16.779Z,37408
2017-06-10T07:06:16.774Z,36352
2017-06-10T07:07:16.758Z,35136
2017-06-10T07:08:16.743Z,32960
2017-06-10T07:09:16.756Z,32672
2017-06-10T07:10:16.729Z,34688
2017-06-10T07:11:16.722Z,38144
2017-06-10T07:12:16.712Z,43872
2017-06-10T07:13:16.701Z,48352
2017-06-10T07:14:16.690Z,49152
2017-06-10T07:15:16.696Z,46048
2017-06-10T07:16:16.681Z,41760
2017-06-10T07:17:16.679Z,37824
2017-06-10T07:18:16.655Z,37248
2017-06-10T07:19:16.644Z,38720
2017-06-10T07:20:16.641Z,40864
2017-06-10T07:21:16.625Z,43584
2017-06-10T07:22:16.331Z,45440
2017-06-10T07:23:16.625Z,45248
2017-06-10T07:24:16.614Z,46848
2017-06-10T07:25:16.609Z,46944
2017-06-10T07:26:16.590Z,47872
2017-06-10T07:27:16.583Z,48672
2017-06-10T07:28:16.581Z,48832
2017-06-10T07:29:16.613Z,48704
2017-06-10T07:30:16.561Z,46688
2017-06-10T07:31:16.546Z,45664
2017-06-10T07:32:16.336Z,45024
2017-06-10T07:33:16.227Z,46912
2017-06-10T07:34:16.577Z,51168
2017-06-10T07:35:16.523Z,54880
2017-06-10T07:36:16.207Z,56160
2017-06-10T07:37:16.213Z,54432
2017-06-10T07:38:16.537Z,51744
2017-06-10T07:39:16.487Z,48576
2017-06-10T07:40:16.483Z,45184
2017-06-10T07:41:16.477Z,43072
2017-06-10T07:42:16.512Z,42720
2017-06-10T07:43:16.457Z,45408
2017-06-10T07:44:16.446Z,52128
2017-06-10T07:45:16.446Z,56896
2017-06-10T07:46:16.438Z,59776
2017-06-10T07:47:16.430Z,61856
2017-06-10T07:48:16.421Z,60096
2017-06-10T07:49:16.418Z,57376
2017-06-10T07:50:16.408Z,54528
2017-06-10T07:51:16.099Z,52160
2017-06-10T07:52:16.390Z,50592
2017-06-10T07:53:16.387Z,51680
2017-06-10T07:54:16.376Z,55008
2017-06-10T07:55:16.373Z,58016
2017-06-10T07:56:16.061Z,60320
2017-06-10T07:57:16.358Z,62144
2017-06-10T07:58:16.353Z,60032
2017-06-10T07:59:16.338Z,58592
2017-06-10T08:00:16.334Z,56800
2017-06-10T08:01:16.340Z,55168
2017-06-10T08:02:16.328Z,55264
2017-06-10T08:03:16.367Z,56704
2017-06-10T08:04:16.311Z,58688
2017-06-10T08:05:16.321Z,61056
2017-06-10T08:06:16.303Z,62976
2017-06-10T08:07:16.298Z,63808
2017-06-10T08:08:16.039Z,63584
2017-06-10T08:09:16.283Z,63456
2017-06-10T08:10:15.974Z,63008
2017-06-10T08:11:16.263Z,60544
2017-06-10T08:12:16.257Z,57888
2017-06-10T08:13:16.258Z,56864
2017-06-10T08:14:16.246Z,56672
2017-06-10T08:15:16.246Z,59168
2017-06-10T08:16:16.238Z,62112
2017-06-10T08:17:16.231Z,65824
2017-06-10T08:18:16.225Z,67360
2017-06-10T08:19:16.222Z,65632
2017-06-10T08:20:15.908Z,62848
2017-06-10T08:21:16.249Z,58912
2017-06-10T08:22:15.900Z,54848
2017-06-10T08:23:16.191Z,53024
2017-06-10T08:24:15.891Z,53216
2017-06-10T08:25:16.174Z,52928
2017-06-10T08:26:16.176Z,53440
2017-06-10T08:27:16.172Z,55680
2017-06-10T08:28:16.169Z,56416
2017-06-10T08:29:16.162Z,59104
2017-06-10T08:30:16.158Z,59840
2017-06-10T08:31:16.150Z,60768
2017-06-10T08:32:16.147Z,60320
2017-06-10T08:33:16.136Z,60000
2017-06-10T08:34:16.135Z,60576
2017-06-10T08:35:16.128Z,59584
2017-06-10T08:36:16.115Z,63520
2017-06-10T08:37:16.159Z,69408
2017-06-10T08:38:16.103Z,71168
2017-06-10T08:39:15.801Z,75264
2017-06-10T08:40:16.100Z,79488
2017-06-10T08:41:15.788Z,81760
2017-06-10T08:42:16.129Z,83776
2017-06-10T08:43:16.098Z,84224
2017-06-10T08:44:16.076Z,81664
2017-06-10T08:45:16.074Z,76864
2017-06-10T08:46:16.076Z,70784
2017-06-10T08:47:16.065Z,69248
2017-06-10T08:48:16.062Z,70560
2017-06-10T08:49:16.073Z,74144
2017-06-10T08:50:16.049Z,76608
2017-06-10T08:51:16.073Z,73664
2017-06-10T08:52:16.037Z,75680
2017-06-10T08:53:16.032Z,73184
2017-06-10T08:54:16.029Z,71488
2017-06-10T08:55:16.049Z,68352
2017-06-10T08:56:16.029Z,66496
2017-06-10T08:57:16.071Z,66336
2017-06-10T08:58:16.007Z,69280
2017-06-10T08:59:16.010Z,71360
2017-06-10T09:00:15.991Z,73440
2017-06-10T09:01:16.002Z,76320
2017-06-10T09:02:15.688Z,77824
2017-06-10T09:03:16.006Z,77472
2017-06-10T09:04:15.677Z,74336
2017-06-10T09:05:15.973Z,71488
2017-06-10T09:06:15.978Z,65888
2017-06-10T09:07:15.985Z,64288
2017-06-10T09:08:15.952Z,62368
2017-06-10T09:09:15.356Z,64032
2017-06-10T09:10:15.947Z,65472
2017-06-10T09:11:15.948Z,69504
2017-06-10T09:12:15.639Z,74528
2017-06-10T09:13:15.990Z,77888
2017-06-10T09:14:15.632Z,79552
2017-06-10T09:15:15.923Z,79648
2017-06-10T09:16:15.914Z,78656
2017-06-10T09:17:15.918Z,77344
2017-06-10T09:18:15.912Z,78752
2017-06-10T09:19:15.960Z,77504
2017-06-10T09:20:15.899Z,77120
2017-06-10T09:21:15.942Z,78816
2017-06-10T09:22:15.897Z,83616
2017-06-10T09:23:15.894Z,81568
2017-06-10T09:24:15.882Z,51424
2017-06-10T09:25:15.895Z,51136
2017-06-10T09:26:15.871Z,55584
2017-06-10T09:27:15.874Z,69408
2017-06-10T09:28:15.872Z,70848
2017-06-10T09:29:15.550Z,52224
2017-06-10T09:30:15.555Z,46304
2017-06-10T09:31:15.549Z,39328
2017-06-10T09:32:15.543Z,40928
2017-06-10T09:33:15.839Z,65216
2017-06-10T09:34:15.534Z,46048
2017-06-10T09:35:15.831Z,52256
2017-06-10T09:36:15.826Z,80096
2017-06-10T09:37:15.835Z,75488
2017-06-10T09:38:15.805Z,38336
2017-06-10T09:39:15.806Z,87328
2017-06-10T09:40:15.800Z,58528
2017-06-10T09:41:15.795Z,64576
2017-06-10T09:42:15.784Z,70656
2017-06-10T09:43:15.769Z,67936
2017-06-10T09:44:15.784Z,57472
2017-06-10T09:45:15.461Z,59456
2017-06-10T09:46:15.759Z,63936
2017-06-10T09:47:15.469Z,52320
2017-06-10T09:48:15.751Z,47584
2017-06-10T09:49:15.752Z,48544
2017-06-10T09:50:15.745Z,34272
2017-06-10T09:51:15.733Z,28576
2017-06-10T09:52:15.726Z,25088
2017-06-10T09:53:15.711Z,23712
2017-06-10T09:54:15.652Z,23616
2017-06-10T09:55:15.691Z,25376
2017-06-10T09:56:15.697Z,28352
2017-06-10T09:57:15.695Z,33120
2017-06-10T09:58:15.369Z,34048
2017-06-10T09:59:15.669Z,45056
2017-06-10T10:00:15.355Z,38176
2017-06-10T10:01:15.645Z,34304
2017-06-10T10:02:15.638Z,36320
2017-06-10T10:03:15.627Z,32064
2017-06-10T10:04:15.614Z,35968
2017-06-10T10:05:15.606Z,39552
2017-06-10T10:06:15.302Z,37920
2017-06-10T10:07:15.584Z,30688
2017-06-10T10:08:15.627Z,37952
2017-06-10T10:09:15.568Z,70240
2017-06-10T10:10:15.555Z,35168
2017-06-10T10:11:15.241Z,41440
2017-06-10T10:12:15.548Z,46304
2017-06-10T10:13:15.520Z,48736
2017-06-10T10:14:15.567Z,50912
2017-06-10T10:15:15.511Z,41952
2017-06-10T10:16:15.501Z,83008
2017-06-10T10:17:15.482Z,49984
2017-06-10T10:18:15.483Z,84864
2017-06-10T10:19:15.477Z,82720
2017-06-10T10:20:15.508Z,103072
2017-06-10T10:21:15.531Z,60416
2017-06-10T10:22:15.492Z,45152
2017-06-10T10:23:15.485Z,40192
2017-06-10T10:24:15.423Z,35680
2017-06-10T10:25:15.412Z,40160
2017-06-10T10:26:15.418Z,37344
2017-06-10T10:27:15.393Z,60928
2017-06-10T10:28:15.437Z,41152
2017-06-10T10:29:15.395Z,61408
2017-06-10T10:30:15.374Z,46592
2017-06-10T10:31:15.357Z,31840
2017-06-10T10:32:15.575Z,49728
2017-06-10T10:33:15.398Z,60320
2017-06-10T10:34:15.383Z,41312
2017-06-10T10:35:15.018Z,33760
2017-06-10T10:36:15.309Z,42048
2017-06-10T10:37:15.298Z,43328
2017-06-10T10:38:15.302Z,31872
2017-06-10T10:39:15.537Z,30816
2017-06-10T10:40:14.968Z,32384
2017-06-10T10:41:15.267Z,42496
2017-06-10T10:42:15.253Z,37504
2017-06-10T10:43:15.246Z,37504
2017-06-10T10:44:14.930Z,33728
2017-06-10T10:45:15.223Z,27264
2017-06-10T10:46:15.218Z,37728
2017-06-10T10:47:14.900Z,31392
2017-06-10T10:48:15.193Z,33216
2017-06-10T10:49:15.227Z,33408
2017-06-10T10:50:14.861Z,32608
2017-06-10T10:51:15.169Z,34560
2017-06-10T10:52:15.159Z,28416
2017-06-10T10:53:15.134Z,28032
2017-06-10T10:54:15.136Z,29376
2017-06-10T10:55:15.113Z,38656
2017-06-10T10:56:14.857Z,30240
2017-06-10T10:57:15.091Z,33312
2017-06-10T10:58:15.077Z,29312
2017-06-10T10:59:15.075Z,45344
2017-06-10T11:00:15.076Z,29952
2017-06-10T11:01:14.752Z,31232
2017-06-10T11:02:15.040Z,30848
2017-06-10T11:03:15.029Z,31200
2017-06-10T11:04:15.016Z,30688
2017-06-10T11:05:15.011Z,30144
2017-06-10T11:06:15.002Z,31872
2017-06-10T11:07:14.977Z,31712
2017-06-10T11:08:14.974Z,31584
2017-06-10T11:09:14.968Z,63328
2017-06-10T11:10:14.952Z,42816
2017-06-10T11:11:14.937Z,35264
2017-06-10T11:12:14.636Z,33184
2017-06-10T11:13:14.915Z,29248
2017-06-10T11:14:14.906Z,56704
2017-06-10T11:15:14.895Z,42016
2017-06-10T11:16:14.884Z,28192
2017-06-10T11:17:14.583Z,28672
2017-06-10T11:18:14.858Z,26528
2017-06-10T11:19:14.547Z,26432
2017-06-10T11:20:14.838Z,28448
2017-06-10T11:21:14.829Z,28032
2017-06-10T11:22:14.809Z,27456
2017-06-10T11:23:14.797Z,28224
2017-06-10T11:24:14.792Z,28704
2017-06-10T11:25:14.829Z,28896
2017-06-10T11:26:14.473Z,28192
2017-06-10T11:27:14.762Z,27840
2017-06-10T11:28:14.743Z,27712
2017-06-10T11:29:14.731Z,28416
2017-06-10T11:30:14.719Z,28128
2017-06-10T11:31:14.952Z,28512
2017-06-10T11:32:14.701Z,28352
2017-06-10T11:33:14.383Z,28320
2017-06-10T11:34:14.660Z,27264
2017-06-10T11:35:14.656Z,26464
2017-06-10T11:36:14.654Z,24992
2017-06-10T11:37:14.646Z,23008
2017-06-10T11:38:14.623Z,21856
2017-06-10T11:39:14.610Z,19552
2017-06-10T11:40:14.607Z,17984
2017-06-10T11:41:14.591Z,16280
2017-06-10T11:42:29.187Z,15540
2017-06-10T11:43:14.390Z,15416
2017-06-10T11:44:14.570Z,15460
2017-06-10T11:45:14.543Z,16236
2017-06-10T11:46:14.522Z,17568
2017-06-10T11:47:14.511Z,19136
2017-06-10T11:48:14.490Z,20544
2017-06-10T11:49:14.191Z,19968
2017-06-10T11:50:14.468Z,20224
2017-06-10T11:51:14.467Z,20928
2017-06-10T11:52:14.458Z,22080
2017-06-10T11:53:14.433Z,22624
2017-06-10T11:54:14.118Z,22400
2017-06-10T11:55:14.406Z,20384
2017-06-10T11:56:14.407Z,18880
2017-06-10T11:57:14.396Z,16864
2017-06-10T11:58:14.369Z,14588
2017-06-10T11:59:14.358Z,13408
2017-06-10T12:00:13.741Z,12000
2017-06-10T12:01:14.077Z,11900
2017-06-10T12:02:14.320Z,14336
2017-06-10T12:03:14.309Z,15408
2017-06-10T12:04:14.289Z,16076
2017-06-10T12:05:14.043Z,16084
2017-06-10T12:06:14.007Z,15656
2017-06-10T12:07:14.716Z,14140
2017-06-10T12:08:13.942Z,13440
2017-06-10T12:09:14.212Z,14284
2017-06-10T12:10:14.212Z,13764
2017-06-10T12:11:13.910Z,12444
2017-06-10T12:12:13.872Z,11324
2017-06-10T12:13:14.162Z,11220
2017-06-10T12:14:14.350Z,11728
2017-06-10T12:15:14.390Z,11380
2017-06-10T12:16:14.117Z,11808
2017-06-10T12:17:13.802Z,12304
2017-06-10T12:18:14.117Z,12584
2017-06-10T12:19:14.126Z,12388
2017-06-10T12:20:14.060Z,13868
2017-06-10T12:21:14.043Z,15744
2017-06-10T12:22:14.284Z,15392
2017-06-10T12:23:14.024Z,14012
2017-06-10T12:24:14.001Z,12588
2017-06-10T12:25:14.040Z,12088
2017-06-10T12:26:13.965Z,12004
2017-06-10T12:27:13.963Z,11428
2017-06-10T12:28:13.938Z,12532
2017-06-10T12:29:13.709Z,14612
2017-06-10T12:30:13.916Z,14624
2017-06-10T12:31:13.898Z,13592
2017-06-10T12:32:13.873Z,11932
2017-06-10T12:33:13.869Z,10428
2017-06-10T12:34:13.863Z,9256
2017-06-10T12:35:13.845Z,8128
2017-06-10T12:36:13.827Z,7744
2017-06-10T12:37:13.815Z,7788
2017-06-10T12:38:13.784Z,9072
2017-06-10T12:39:13.787Z,9588
2017-06-10T12:40:13.770Z,10540
2017-06-10T12:41:13.754Z,11868
2017-06-10T12:42:13.783Z,13148
2017-06-10T12:43:13.740Z,12976
2017-06-10T12:44:13.397Z,11904
2017-06-10T12:45:13.384Z,11196
2017-06-10T12:46:13.680Z,11068
2017-06-10T12:47:13.655Z,11752
2017-06-10T12:48:13.640Z,11652
2017-06-10T12:49:13.626Z,11868
2017-06-10T12:50:13.611Z,12472
2017-06-10T12:51:13.602Z,10576
2017-06-10T12:52:13.585Z,8848
2017-06-10T12:53:13.612Z,6924
2017-06-10T12:54:13.247Z,6576
2017-06-10T12:55:13.538Z,7868
2017-06-10T12:56:13.522Z,9944
2017-06-10T12:57:13.510Z,11560
2017-06-10T12:58:13.483Z,11652
2017-06-10T12:59:13.479Z,11024
2017-06-10T13:00:13.464Z,11020
2017-06-10T13:01:13.447Z,12112
2017-06-10T13:02:13.432Z,12148
2017-06-10T13:03:13.418Z,10652
2017-06-10T13:04:13.391Z,9200
2017-06-10T13:05:13.386Z,8044
2017-06-10T13:06:13.368Z,8552
2017-06-10T13:07:13.045Z,9000
2017-06-10T13:08:13.344Z,9172
2017-06-10T13:09:13.022Z,7964
2017-06-10T13:10:13.309Z,6824
2017-06-10T13:11:13.288Z,6628
2017-06-10T13:12:13.265Z,7352
2017-06-10T13:13:13.260Z,7436
2017-06-10T13:14:12.940Z,7328
2017-06-10T13:15:13.227Z,8416
2017-06-10T13:16:13.218Z,9836
2017-06-10T13:17:12.896Z,11132
2017-06-10T13:18:13.182Z,12056
2017-06-10T13:19:13.161Z,13332
2017-06-10T13:20:13.189Z,15420